sensor_id;sensor_type;location;lat;lon;timestamp;P1;durP1;ratioP1;P2;durP2;ratioP2
13611;SDS011;6877;51.436;6.774;2023-12-04T00:00:27;27.65;;;10.25;;
13611;SDS011;6877;51.436;6.774;2023-12-04T00:02:59;26.60;;;11.73;;
13611;SDS011;6877;51.436;6.774;2023-12-04T00:05:25;21.60;;;9.93;;
13611;SDS011;6877;51.436;6.774;2023-12-04T00:07:57;22.00;;;11.80;;
13611;SDS011;6877;51.436;6.774;2023-12-04T00:10:23;23.45;;;11.55;;
13611;SDS011;6877;51.436;6.774;2023-12-04T00:12:50;21.67;;;10.27;;
13611;SDS011;6877;51.436;6.774;2023-12-04T00:15:22;25.38;;;10.63;;
13611;SDS011;6877;51.436;6.774;2023-12-04T00:17:48;23.55;;;11.18;;
13611;SDS011;6877;51.436;6.774;2023-12-04T00:20:15;24.15;;;10.55;;
13611;SDS011;6877;51.436;6.774;2023-12-04T00:22:46;22.50;;;10.75;;
13611;SDS011;6877;51.436;6.774;2023-12-04T00:25:13;23.08;;;11.07;;
13611;SDS011;6877;51.436;6.774;2023-12-04T00:27:39;24.90;;;10.65;;
13611;SDS011;6877;51.436;6.774;2023-12-04T00:30:06;20.38;;;11.25;;
13611;SDS011;6877;51.436;6.774;2023-12-04T00:32:38;21.40;;;10.45;;
13611;SDS011;6877;51.436;6.774;2023-12-04T00:35:09;27.95;;;10.95;;
13611;SDS011;6877;51.436;6.774;2023-12-04T00:37:36;18.50;;;9.68;;
13611;SDS011;6877;51.436;6.774;2023-12-04T00:40:09;20.92;;;9.50;;
13611;SDS011;6877;51.436;6.774;2023-12-04T00:42:36;20.40;;;9.77;;
13611;SDS011;6877;51.436;6.774;2023-12-04T00:45:07;24.60;;;10.13;;
13611;SDS011;6877;51.436;6.774;2023-12-04T00:47:39;18.90;;;10.35;;
13611;SDS011;6877;51.436;6.774;2023-12-04T00:50:06;22.60;;;10.65;;
13611;SDS011;6877;51.436;6.774;2023-12-04T00:52:33;19.75;;;8.60;;
13611;SDS011;6877;51.436;6.774;2023-12-04T00:55:04;16.38;;;9.25;;
13611;SDS011;6877;51.436;6.774;2023-12-04T00:57:36;24.15;;;11.18;;
13611;SDS011;6877;51.436;6.774;2023-12-04T01:00:07;25.13;;;10.43;;
13611;SDS011;6877;51.436;6.774;2023-12-04T01:02:39;24.73;;;11.07;;
13611;SDS011;6877;51.436;6.774;2023-12-04T01:05:11;22.95;;;9.23;;
13611;SDS011;6877;51.436;6.774;2023-12-04T01:07:42;22.65;;;9.10;;
13611;SDS011;6877;51.436;6.774;2023-12-04T01:10:14;16.38;;;9.02;;
13611;SDS011;6877;51.436;6.774;2023-12-04T01:12:40;21.63;;;9.60;;
13611;SDS011;6877;51.436;6.774;2023-12-04T01:15:07;18.80;;;9.65;;
13611;SDS011;6877;51.436;6.774;2023-12-04T01:17:34;23.88;;;10.25;;
13611;SDS011;6877;51.436;6.774;2023-12-04T01:20:00;19.70;;;9.63;;
13611;SDS011;6877;51.436;6.774;2023-12-04T01:22:26;18.50;;;9.30;;
13611;SDS011;6877;51.436;6.774;2023-12-04T01:24:53;16.77;;;8.75;;
13611;SDS011;6877;51.436;6.774;2023-12-04T01:27:24;25.02;;;10.23;;
13611;SDS011;6877;51.436;6.774;2023-12-04T01:29:51;17.23;;;8.90;;
13611;SDS011;6877;51.436;6.774;2023-12-04T01:32:22;16.65;;;8.70;;
13611;SDS011;6877;51.436;6.774;2023-12-04T01:34:54;23.75;;;9.25;;
13611;SDS011;6877;51.436;6.774;2023-12-04T01:37:20;16.35;;;8.80;;
13611;SDS011;6877;51.436;6.774;2023-12-04T01:39:52;18.13;;;8.95;;
13611;SDS011;6877;51.436;6.774;2023-12-04T01:42:18;22.73;;;8.63;;
13611;SDS011;6877;51.436;6.774;2023-12-04T01:44:44;20.80;;;9.38;;
13611;SDS011;6877;51.436;6.774;2023-12-04T01:47:11;16.55;;;8.93;;
13611;SDS011;6877;51.436;6.774;2023-12-04T01:49:43;20.05;;;9.18;;
13611;SDS011;6877;51.436;6.774;2023-12-04T01:52:10;15.52;;;7.90;;
13611;SDS011;6877;51.436;6.774;2023-12-04T01:54:37;17.45;;;8.60;;
13611;SDS011;6877;51.436;6.774;2023-12-04T01:57:09;17.25;;;9.27;;
13611;SDS011;6877;51.436;6.774;2023-12-04T01:59:36;14.23;;;8.00;;
13611;SDS011;6877;51.436;6.774;2023-12-04T02:02:02;19.83;;;8.52;;
13611;SDS011;6877;51.436;6.774;2023-12-04T02:04:31;17.55;;;8.45;;
13611;SDS011;6877;51.436;6.774;2023-12-04T02:06:58;14.25;;;7.28;;
13611;SDS011;6877;51.436;6.774;2023-12-04T02:09:25;19.33;;;9.23;;
13611;SDS011;6877;51.436;6.774;2023-12-04T02:11:51;19.45;;;7.90;;
13611;SDS011;6877;51.436;6.774;2023-12-04T02:14:19;20.55;;;8.60;;
13611;SDS011;6877;51.436;6.774;2023-12-04T02:16:50;16.80;;;7.88;;
13611;SDS011;6877;51.436;6.774;2023-12-04T02:19:20;18.10;;;7.80;;
13611;SDS011;6877;51.436;6.774;2023-12-04T02:21:47;15.57;;;8.13;;
13611;SDS011;6877;51.436;6.774;2023-12-04T02:24:13;19.25;;;9.35;;
13611;SDS011;6877;51.436;6.774;2023-12-04T02:26:53;14.88;;;8.05;;
13611;SDS011;6877;51.436;6.774;2023-12-04T02:29:31;19.83;;;9.10;;
13611;SDS011;6877;51.436;6.774;2023-12-04T02:32:03;14.90;;;7.45;;
13611;SDS011;6877;51.436;6.774;2023-12-04T02:34:32;19.52;;;8.68;;
13611;SDS011;6877;51.436;6.774;2023-12-04T02:37:04;17.70;;;7.72;;
13611;SDS011;6877;51.436;6.774;2023-12-04T02:39:32;17.30;;;7.68;;
13611;SDS011;6877;51.436;6.774;2023-12-04T02:41:58;14.35;;;7.45;;
13611;SDS011;6877;51.436;6.774;2023-12-04T02:44:25;15.70;;;9.30;;
13611;SDS011;6877;51.436;6.774;2023-12-04T02:46:57;17.30;;;9.00;;
13611;SDS011;6877;51.436;6.774;2023-12-04T02:49:23;16.90;;;7.88;;
13611;SDS011;6877;51.436;6.774;2023-12-04T02:51:55;12.50;;;6.80;;
13611;SDS011;6877;51.436;6.774;2023-12-04T02:54:21;15.07;;;7.53;;
13611;SDS011;6877;51.436;6.774;2023-12-04T02:56:48;14.00;;;7.70;;
13611;SDS011;6877;51.436;6.774;2023-12-04T02:59:19;15.70;;;7.43;;
13611;SDS011;6877;51.436;6.774;2023-12-04T03:01:51;12.05;;;7.20;;
13611;SDS011;6877;51.436;6.774;2023-12-04T03:04:18;19.58;;;7.47;;
13611;SDS011;6877;51.436;6.774;2023-12-04T03:06:50;17.55;;;9.30;;
13611;SDS011;6877;51.436;6.774;2023-12-04T03:09:22;16.15;;;8.23;;
13611;SDS011;6877;51.436;6.774;2023-12-04T03:11:48;14.38;;;7.32;;
13611;SDS011;6877;51.436;6.774;2023-12-04T03:14:20;14.05;;;7.35;;
13611;SDS011;6877;51.436;6.774;2023-12-04T03:16:51;13.82;;;7.03;;
13611;SDS011;6877;51.436;6.774;2023-12-04T03:19:22;19.63;;;7.63;;
13611;SDS011;6877;51.436;6.774;2023-12-04T03:21:49;13.82;;;7.53;;
13611;SDS011;6877;51.436;6.774;2023-12-04T03:24:15;12.02;;;6.60;;
13611;SDS011;6877;51.436;6.774;2023-12-04T03:26:42;15.25;;;7.82;;
13611;SDS011;6877;51.436;6.774;2023-12-04T03:29:13;16.48;;;8.23;;
13611;SDS011;6877;51.436;6.774;2023-12-04T03:31:45;15.43;;;7.60;;
13611;SDS011;6877;51.436;6.774;2023-12-04T03:34:16;18.75;;;8.70;;
13611;SDS011;6877;51.436;6.774;2023-12-04T03:36:48;14.15;;;7.40;;
13611;SDS011;6877;51.436;6.774;2023-12-04T03:39:14;13.93;;;6.90;;
13611;SDS011;6877;51.436;6.774;2023-12-04T03:41:46;12.63;;;7.60;;
13611;SDS011;6877;51.436;6.774;2023-12-04T03:44:13;17.13;;;7.32;;
13611;SDS011;6877;51.436;6.774;2023-12-04T03:46:39;11.88;;;6.13;;
13611;SDS011;6877;51.436;6.774;2023-12-04T03:49:11;12.30;;;6.65;;
13611;SDS011;6877;51.436;6.774;2023-12-04T03:51:37;16.20;;;7.18;;
13611;SDS011;6877;51.436;6.774;2023-12-04T03:54:09;12.63;;;7.13;;
13611;SDS011;6877;51.436;6.774;2023-12-04T03:56:35;13.63;;;7.20;;
13611;SDS011;6877;51.436;6.774;2023-12-04T03:59:02;15.93;;;6.43;;
13611;SDS011;6877;51.436;6.774;2023-12-04T04:01:29;8.55;;;5.72;;
13611;SDS011;6877;51.436;6.774;2023-12-04T04:03:55;13.82;;;6.35;;
13611;SDS011;6877;51.436;6.774;2023-12-04T04:06:27;10.63;;;5.20;;
13611;SDS011;6877;51.436;6.774;2023-12-04T04:08:58;14.05;;;6.57;;
13611;SDS011;6877;51.436;6.774;2023-12-04T04:11:25;15.15;;;6.78;;
13611;SDS011;6877;51.436;6.774;2023-12-04T04:13:51;12.35;;;6.60;;
13611;SDS011;6877;51.436;6.774;2023-12-04T04:16:23;10.82;;;5.95;;
13611;SDS011;6877;51.436;6.774;2023-12-04T04:18:49;14.43;;;6.70;;
13611;SDS011;6877;51.436;6.774;2023-12-04T04:21:16;12.85;;;6.53;;
13611;SDS011;6877;51.436;6.774;2023-12-04T04:23:47;11.70;;;6.28;;
13611;SDS011;6877;51.436;6.774;2023-12-04T04:26:13;14.57;;;6.40;;
13611;SDS011;6877;51.436;6.774;2023-12-04T04:28:45;8.20;;;5.95;;
13611;SDS011;6877;51.436;6.774;2023-12-04T04:31:16;10.32;;;6.15;;
13611;SDS011;6877;51.436;6.774;2023-12-04T04:33:43;11.95;;;6.65;;
13611;SDS011;6877;51.436;6.774;2023-12-04T04:36:09;11.95;;;6.15;;
13611;SDS011;6877;51.436;6.774;2023-12-04T04:38:41;9.98;;;5.03;;
13611;SDS011;6877;51.436;6.774;2023-12-04T04:41:12;12.90;;;5.72;;
13611;SDS011;6877;51.436;6.774;2023-12-04T04:43:47;14.27;;;6.40;;
13611;SDS011;6877;51.436;6.774;2023-12-04T04:46:18;12.10;;;6.65;;
13611;SDS011;6877;51.436;6.774;2023-12-04T04:48:45;12.35;;;7.22;;
13611;SDS011;6877;51.436;6.774;2023-12-04T04:51:11;14.73;;;6.60;;
13611;SDS011;6877;51.436;6.774;2023-12-04T04:53:38;12.13;;;6.68;;
13611;SDS011;6877;51.436;6.774;2023-12-04T04:56:05;13.02;;;6.10;;
13611;SDS011;6877;51.436;6.774;2023-12-04T04:58:36;11.45;;;6.10;;
13611;SDS011;6877;51.436;6.774;2023-12-04T05:01:03;10.93;;;6.75;;
13611;SDS011;6877;51.436;6.774;2023-12-04T05:03:35;11.45;;;5.97;;
13611;SDS011;6877;51.436;6.774;2023-12-04T05:06:02;9.50;;;6.10;;
13611;SDS011;6877;51.436;6.774;2023-12-04T05:08:29;13.50;;;5.95;;
13611;SDS011;6877;51.436;6.774;2023-12-04T05:11:00;11.65;;;6.07;;
13611;SDS011;6877;51.436;6.774;2023-12-04T05:13:27;10.82;;;5.55;;
13611;SDS011;6877;51.436;6.774;2023-12-04T05:15:58;10.88;;;5.65;;
13611;SDS011;6877;51.436;6.774;2023-12-04T05:18:29;13.60;;;6.78;;
13611;SDS011;6877;51.436;6.774;2023-12-04T05:20:56;10.52;;;5.50;;
13611;SDS011;6877;51.436;6.774;2023-12-04T05:23:22;13.52;;;6.63;;
13611;SDS011;6877;51.436;6.774;2023-12-04T05:25:54;12.88;;;6.70;;
13611;SDS011;6877;51.436;6.774;2023-12-04T05:28:20;11.23;;;6.45;;
13611;SDS011;6877;51.436;6.774;2023-12-04T05:30:52;8.95;;;5.95;;
13611;SDS011;6877;51.436;6.774;2023-12-04T05:33:18;14.55;;;7.15;;
13611;SDS011;6877;51.436;6.774;2023-12-04T05:35:46;13.93;;;7.47;;
13611;SDS011;6877;51.436;6.774;2023-12-04T05:38:19;11.88;;;6.95;;
13611;SDS011;6877;51.436;6.774;2023-12-04T05:40:47;12.13;;;6.60;;
13611;SDS011;6877;51.436;6.774;2023-12-04T05:43:18;14.63;;;7.75;;
13611;SDS011;6877;51.436;6.774;2023-12-04T05:45:45;12.48;;;6.88;;
13611;SDS011;6877;51.436;6.774;2023-12-04T05:48:11;14.90;;;7.47;;
13611;SDS011;6877;51.436;6.774;2023-12-04T05:50:38;13.75;;;6.68;;
13611;SDS011;6877;51.436;6.774;2023-12-04T05:53:05;14.95;;;8.15;;
13611;SDS011;6877;51.436;6.774;2023-12-04T05:55:33;15.93;;;6.72;;
13611;SDS011;6877;51.436;6.774;2023-12-04T05:58:00;14.45;;;7.20;;
13611;SDS011;6877;51.436;6.774;2023-12-04T06:00:31;12.90;;;7.13;;
13611;SDS011;6877;51.436;6.774;2023-12-04T06:02:58;10.88;;;7.32;;
13611;SDS011;6877;51.436;6.774;2023-12-04T06:05:24;13.95;;;7.72;;
13611;SDS011;6877;51.436;6.774;2023-12-04T06:07:56;18.05;;;7.88;;
13611;SDS011;6877;51.436;6.774;2023-12-04T06:10:29;14.65;;;8.00;;
13611;SDS011;6877;51.436;6.774;2023-12-04T06:12:55;17.58;;;8.07;;
13611;SDS011;6877;51.436;6.774;2023-12-04T06:15:22;14.35;;;7.38;;
13611;SDS011;6877;51.436;6.774;2023-12-04T06:17:48;18.20;;;7.68;;
13611;SDS011;6877;51.436;6.774;2023-12-04T06:20:15;13.55;;;7.53;;
13611;SDS011;6877;51.436;6.774;2023-12-04T06:22:46;13.20;;;7.50;;
13611;SDS011;6877;51.436;6.774;2023-12-04T06:25:13;18.77;;;8.48;;
13611;SDS011;6877;51.436;6.774;2023-12-04T06:27:45;16.23;;;8.40;;
13611;SDS011;6877;51.436;6.774;2023-12-04T06:30:17;13.25;;;7.25;;
13611;SDS011;6877;51.436;6.774;2023-12-04T06:32:49;18.13;;;7.45;;
13611;SDS011;6877;51.436;6.774;2023-12-04T06:35:16;15.30;;;7.28;;
13611;SDS011;6877;51.436;6.774;2023-12-04T06:37:43;17.25;;;7.75;;
13611;SDS011;6877;51.436;6.774;2023-12-04T06:40:11;14.20;;;8.43;;
13611;SDS011;6877;51.436;6.774;2023-12-04T06:42:43;15.32;;;7.75;;
13611;SDS011;6877;51.436;6.774;2023-12-04T06:45:15;13.70;;;7.38;;
13611;SDS011;6877;51.436;6.774;2023-12-04T06:47:47;14.75;;;6.85;;
13611;SDS011;6877;51.436;6.774;2023-12-04T06:50:16;15.85;;;7.35;;
13611;SDS011;6877;51.436;6.774;2023-12-04T06:52:48;19.77;;;8.38;;
13611;SDS011;6877;51.436;6.774;2023-12-04T06:55:19;15.55;;;8.07;;
13611;SDS011;6877;51.436;6.774;2023-12-04T06:57:51;13.02;;;7.50;;
13611;SDS011;6877;51.436;6.774;2023-12-04T07:00:22;20.50;;;9.48;;
13611;SDS011;6877;51.436;6.774;2023-12-04T07:02:49;13.60;;;7.80;;
13611;SDS011;6877;51.436;6.774;2023-12-04T07:05:17;16.38;;;8.57;;
13611;SDS011;6877;51.436;6.774;2023-12-04T07:07:50;13.15;;;7.50;;
13611;SDS011;6877;51.436;6.774;2023-12-04T07:10:21;16.70;;;7.80;;
13611;SDS011;6877;51.436;6.774;2023-12-04T07:12:48;14.57;;;8.10;;
13611;SDS011;6877;51.436;6.774;2023-12-04T07:15:19;15.05;;;8.30;;
13611;SDS011;6877;51.436;6.774;2023-12-04T07:17:46;18.25;;;7.95;;
13611;SDS011;6877;51.436;6.774;2023-12-04T07:20:17;14.48;;;7.53;;
13611;SDS011;6877;51.436;6.774;2023-12-04T07:22:44;18.23;;;7.03;;
13611;SDS011;6877;51.436;6.774;2023-12-04T07:25:10;14.15;;;7.47;;
13611;SDS011;6877;51.436;6.774;2023-12-04T07:27:36;17.20;;;8.05;;
13611;SDS011;6877;51.436;6.774;2023-12-04T07:30:03;18.48;;;8.88;;
13611;SDS011;6877;51.436;6.774;2023-12-04T07:32:30;14.52;;;7.22;;
13611;SDS011;6877;51.436;6.774;2023-12-04T07:34:58;14.85;;;7.03;;
13611;SDS011;6877;51.436;6.774;2023-12-04T07:37:30;16.77;;;8.57;;
13611;SDS011;6877;51.436;6.774;2023-12-04T07:39:57;16.10;;;7.70;;
13611;SDS011;6877;51.436;6.774;2023-12-04T07:42:23;16.23;;;7.65;;
13611;SDS011;6877;51.436;6.774;2023-12-04T07:44:55;16.98;;;8.20;;
13611;SDS011;6877;51.436;6.774;2023-12-04T07:47:21;16.10;;;8.38;;
13611;SDS011;6877;51.436;6.774;2023-12-04T07:49:48;17.08;;;7.93;;
13611;SDS011;6877;51.436;6.774;2023-12-04T07:52:20;22.85;;;9.10;;
13611;SDS011;6877;51.436;6.774;2023-12-04T07:54:51;20.65;;;9.30;;
13611;SDS011;6877;51.436;6.774;2023-12-04T07:57:18;17.25;;;8.13;;
13611;SDS011;6877;51.436;6.774;2023-12-04T07:59:50;14.88;;;7.22;;
13611;SDS011;6877;51.436;6.774;2023-12-04T08:02:16;13.95;;;8.60;;
13611;SDS011;6877;51.436;6.774;2023-12-04T08:04:42;14.05;;;7.45;;
13611;SDS011;6877;51.436;6.774;2023-12-04T08:07:14;15.63;;;7.68;;
13611;SDS011;6877;51.436;6.774;2023-12-04T08:09:41;14.65;;;8.13;;
13611;SDS011;6877;51.436;6.774;2023-12-04T08:12:07;19.98;;;7.20;;
13611;SDS011;6877;51.436;6.774;2023-12-04T08:14:40;13.93;;;8.07;;
13611;SDS011;6877;51.436;6.774;2023-12-04T08:17:06;12.02;;;7.57;;
13611;SDS011;6877;51.436;6.774;2023-12-04T08:19:33;12.50;;;6.05;;
13611;SDS011;6877;51.436;6.774;2023-12-04T08:22:00;12.95;;;7.28;;
13611;SDS011;6877;51.436;6.774;2023-12-04T08:24:31;9.65;;;5.82;;
13611;SDS011;6877;51.436;6.774;2023-12-04T08:27:03;21.42;;;6.90;;
13611;SDS011;6877;51.436;6.774;2023-12-04T08:29:29;11.88;;;7.15;;
13611;SDS011;6877;51.436;6.774;2023-12-04T08:31:56;13.73;;;7.20;;
13611;SDS011;6877;51.436;6.774;2023-12-04T08:34:27;18.00;;;6.72;;
13611;SDS011;6877;51.436;6.774;2023-12-04T08:36:59;11.95;;;5.93;;
13611;SDS011;6877;51.436;6.774;2023-12-04T08:39:31;13.20;;;7.10;;
13611;SDS011;6877;51.436;6.774;2023-12-04T08:42:02;7.75;;;5.15;;
13611;SDS011;6877;51.436;6.774;2023-12-04T08:44:34;11.80;;;6.75;;
13611;SDS011;6877;51.436;6.774;2023-12-04T08:47:01;20.50;;;7.03;;
13611;SDS011;6877;51.436;6.774;2023-12-04T08:49:28;10.68;;;5.90;;
13611;SDS011;6877;51.436;6.774;2023-12-04T08:51:59;10.60;;;5.85;;
13611;SDS011;6877;51.436;6.774;2023-12-04T08:54:26;10.90;;;5.68;;
13611;SDS011;6877;51.436;6.774;2023-12-04T08:56:57;11.15;;;6.18;;
13611;SDS011;6877;51.436;6.774;2023-12-04T08:59:24;15.25;;;6.68;;
13611;SDS011;6877;51.436;6.774;2023-12-04T09:01:55;10.27;;;5.68;;
13611;SDS011;6877;51.436;6.774;2023-12-04T09:04:22;10.77;;;6.43;;
13611;SDS011;6877;51.436;6.774;2023-12-04T09:06:48;12.80;;;5.50;;
13611;SDS011;6877;51.436;6.774;2023-12-04T09:09:14;9.52;;;4.78;;
13611;SDS011;6877;51.436;6.774;2023-12-04T09:11:42;8.95;;;5.95;;
13611;SDS011;6877;51.436;6.774;2023-12-04T09:14:09;11.07;;;6.25;;
13611;SDS011;6877;51.436;6.774;2023-12-04T09:16:36;10.25;;;5.80;;
13611;SDS011;6877;51.436;6.774;2023-12-04T09:19:02;9.20;;;5.28;;
13611;SDS011;6877;51.436;6.774;2023-12-04T09:21:33;7.35;;;4.32;;
13611;SDS011;6877;51.436;6.774;2023-12-04T09:24:01;11.40;;;5.45;;
13611;SDS011;6877;51.436;6.774;2023-12-04T09:26:33;7.95;;;5.20;;
13611;SDS011;6877;51.436;6.774;2023-12-04T09:29:00;8.65;;;5.45;;
13611;SDS011;6877;51.436;6.774;2023-12-04T09:31:26;9.15;;;4.63;;
13611;SDS011;6877;51.436;6.774;2023-12-04T09:33:53;11.57;;;5.32;;
13611;SDS011;6877;51.436;6.774;2023-12-04T09:36:24;8.05;;;5.15;;
13611;SDS011;6877;51.436;6.774;2023-12-04T09:38:56;10.93;;;5.10;;
13611;SDS011;6877;51.436;6.774;2023-12-04T09:41:27;10.45;;;5.50;;
13611;SDS011;6877;51.436;6.774;2023-12-04T09:43:54;15.35;;;5.80;;
13611;SDS011;6877;51.436;6.774;2023-12-04T09:46:21;10.43;;;5.47;;
13611;SDS011;6877;51.436;6.774;2023-12-04T09:48:52;10.45;;;5.78;;
13611;SDS011;6877;51.436;6.774;2023-12-04T09:51:27;7.35;;;5.35;;
13611;SDS011;6877;51.436;6.774;2023-12-04T09:53:53;10.23;;;5.65;;
13611;SDS011;6877;51.436;6.774;2023-12-04T09:56:21;13.20;;;5.78;;
13611;SDS011;6877;51.436;6.774;2023-12-04T09:58:57;10.15;;;4.57;;
13611;SDS011;6877;51.436;6.774;2023-12-04T10:01:25;12.90;;;5.30;;
13611;SDS011;6877;51.436;6.774;2023-12-04T10:03:54;8.75;;;4.97;;
13611;SDS011;6877;51.436;6.774;2023-12-04T10:06:23;8.75;;;4.35;;
13611;SDS011;6877;51.436;6.774;2023-12-04T10:08:58;8.52;;;4.78;;
13611;SDS011;6877;51.436;6.774;2023-12-04T10:11:25;8.10;;;5.25;;
13611;SDS011;6877;51.436;6.774;2023-12-04T10:13:53;8.30;;;5.22;;
13611;SDS011;6877;51.436;6.774;2023-12-04T10:16:35;9.85;;;5.18;;
13611;SDS011;6877;51.436;6.774;2023-12-04T10:19:19;7.72;;;4.97;;
13611;SDS011;6877;51.436;6.774;2023-12-04T10:21:52;9.27;;;4.90;;
13611;SDS011;6877;51.436;6.774;2023-12-04T10:27:02;11.23;;;6.03;;
13611;SDS011;6877;51.436;6.774;2023-12-04T10:29:40;8.88;;;5.45;;
13611;SDS011;6877;51.436;6.774;2023-12-04T10:32:18;11.32;;;5.07;;
13611;SDS011;6877;51.436;6.774;2023-12-04T10:34:48;8.55;;;5.05;;
13611;SDS011;6877;51.436;6.774;2023-12-04T10:37:15;9.00;;;5.20;;
13611;SDS011;6877;51.436;6.774;2023-12-04T10:39:46;11.00;;;5.85;;
13611;SDS011;6877;51.436;6.774;2023-12-04T10:42:23;11.43;;;5.68;;
13611;SDS011;6877;51.436;6.774;2023-12-04T10:44:51;10.50;;;6.25;;
13611;SDS011;6877;51.436;6.774;2023-12-04T10:47:26;17.40;;;5.30;;
13611;SDS011;6877;51.436;6.774;2023-12-04T10:49:59;9.50;;;5.78;;
13611;SDS011;6877;51.436;6.774;2023-12-04T10:52:28;10.60;;;6.05;;
13611;SDS011;6877;51.436;6.774;2023-12-04T10:54:59;12.60;;;5.35;;
13611;SDS011;6877;51.436;6.774;2023-12-04T10:57:31;12.32;;;5.18;;
13611;SDS011;6877;51.436;6.774;2023-12-04T11:00:07;9.90;;;6.20;;
13611;SDS011;6877;51.436;6.774;2023-12-04T11:02:35;8.55;;;5.45;;
13611;SDS011;6877;51.436;6.774;2023-12-04T11:05:13;8.45;;;6.47;;
13611;SDS011;6877;51.436;6.774;2023-12-04T11:07:44;13.63;;;6.03;;
13611;SDS011;6877;51.436;6.774;2023-12-04T11:10:14;12.35;;;5.65;;
13611;SDS011;6877;51.436;6.774;2023-12-04T11:12:44;12.80;;;5.50;;
13611;SDS011;6877;51.436;6.774;2023-12-04T11:15:13;10.95;;;5.60;;
13611;SDS011;6877;51.436;6.774;2023-12-04T11:17:42;11.88;;;5.97;;
13611;SDS011;6877;51.436;6.774;2023-12-04T11:20:16;10.30;;;5.60;;
13611;SDS011;6877;51.436;6.774;2023-12-04T11:22:45;13.10;;;6.45;;
13611;SDS011;6877;51.436;6.774;2023-12-04T11:25:14;19.55;;;6.53;;
13611;SDS011;6877;51.436;6.774;2023-12-04T11:27:40;13.32;;;5.47;;
13611;SDS011;6877;51.436;6.774;2023-12-04T11:30:13;17.92;;;7.55;;
13611;SDS011;6877;51.436;6.774;2023-12-04T11:32:46;9.48;;;6.13;;
13611;SDS011;6877;51.436;6.774;2023-12-04T11:35:15;14.15;;;6.60;;
13611;SDS011;6877;51.436;6.774;2023-12-04T11:37:44;12.18;;;6.68;;
13611;SDS011;6877;51.436;6.774;2023-12-04T11:40:14;11.27;;;6.65;;
13611;SDS011;6877;51.436;6.774;2023-12-04T11:42:42;12.38;;;6.45;;
13611;SDS011;6877;51.436;6.774;2023-12-04T11:45:08;12.10;;;6.90;;
13611;SDS011;6877;51.436;6.774;2023-12-04T11:47:51;16.38;;;7.80;;
13611;SDS011;6877;51.436;6.774;2023-12-04T11:50:20;12.23;;;5.90;;
13611;SDS011;6877;51.436;6.774;2023-12-04T11:52:47;10.63;;;6.55;;
13611;SDS011;6877;51.436;6.774;2023-12-04T11:55:20;11.45;;;6.13;;
13611;SDS011;6877;51.436;6.774;2023-12-04T11:57:54;14.77;;;7.28;;
13611;SDS011;6877;51.436;6.774;2023-12-04T12:00:21;12.27;;;6.82;;
13611;SDS011;6877;51.436;6.774;2023-12-04T12:05:24;9.75;;;6.22;;
13611;SDS011;6877;51.436;6.774;2023-12-04T12:07:52;11.70;;;6.75;;
13611;SDS011;6877;51.436;6.774;2023-12-04T12:10:26;18.45;;;7.50;;
13611;SDS011;6877;51.436;6.774;2023-12-04T12:12:54;14.85;;;6.78;;
13611;SDS011;6877;51.436;6.774;2023-12-04T12:15:26;14.23;;;6.55;;
13611;SDS011;6877;51.436;6.774;2023-12-04T12:17:53;13.52;;;6.65;;
13611;SDS011;6877;51.436;6.774;2023-12-04T12:20:19;10.95;;;7.35;;
13611;SDS011;6877;51.436;6.774;2023-12-04T12:22:47;13.88;;;7.28;;
13611;SDS011;6877;51.436;6.774;2023-12-04T12:25:15;16.45;;;7.28;;
13611;SDS011;6877;51.436;6.774;2023-12-04T12:27:42;12.38;;;7.20;;
13611;SDS011;6877;51.436;6.774;2023-12-04T12:30:09;11.40;;;6.90;;
13611;SDS011;6877;51.436;6.774;2023-12-04T12:32:36;12.43;;;6.93;;
13611;SDS011;6877;51.436;6.774;2023-12-04T12:35:03;14.68;;;7.45;;
13611;SDS011;6877;51.436;6.774;2023-12-04T12:37:29;12.80;;;7.25;;
13611;SDS011;6877;51.436;6.774;2023-12-04T12:39:57;12.23;;;6.90;;
13611;SDS011;6877;51.436;6.774;2023-12-04T12:42:27;15.63;;;7.15;;
13611;SDS011;6877;51.436;6.774;2023-12-04T12:44:55;11.80;;;6.80;;
13611;SDS011;6877;51.436;6.774;2023-12-04T12:47:25;15.23;;;6.88;;
13611;SDS011;6877;51.436;6.774;2023-12-04T12:49:52;14.18;;;7.70;;
13611;SDS011;6877;51.436;6.774;2023-12-04T12:52:19;17.83;;;7.93;;
13611;SDS011;6877;51.436;6.774;2023-12-04T12:54:46;11.35;;;6.57;;
13611;SDS011;6877;51.436;6.774;2023-12-04T12:57:17;12.02;;;6.25;;
13611;SDS011;6877;51.436;6.774;2023-12-04T12:59:44;11.68;;;6.05;;
13611;SDS011;6877;51.436;6.774;2023-12-04T13:02:10;17.15;;;8.93;;
13611;SDS011;6877;51.436;6.774;2023-12-04T13:04:37;15.23;;;7.22;;
13611;SDS011;6877;51.436;6.774;2023-12-04T13:07:07;14.02;;;7.45;;
13611;SDS011;6877;51.436;6.774;2023-12-04T13:09:37;13.57;;;7.10;;
13611;SDS011;6877;51.436;6.774;2023-12-04T13:12:10;11.35;;;7.03;;
13611;SDS011;6877;51.436;6.774;2023-12-04T13:14:37;13.23;;;6.50;;
13611;SDS011;6877;51.436;6.774;2023-12-04T13:17:05;14.00;;;7.30;;
13611;SDS011;6877;51.436;6.774;2023-12-04T13:19:37;12.77;;;7.80;;
13611;SDS011;6877;51.436;6.774;2023-12-04T13:22:04;14.00;;;7.10;;
13611;SDS011;6877;51.436;6.774;2023-12-04T13:24:30;12.93;;;7.15;;
13611;SDS011;6877;51.436;6.774;2023-12-04T13:26:57;15.30;;;7.55;;
13611;SDS011;6877;51.436;6.774;2023-12-04T13:29:24;10.50;;;6.38;;
13611;SDS011;6877;51.436;6.774;2023-12-04T13:31:50;11.57;;;6.45;;
13611;SDS011;6877;51.436;6.774;2023-12-04T13:34:17;13.60;;;5.95;;
13611;SDS011;6877;51.436;6.774;2023-12-04T13:36:43;12.90;;;6.18;;
13611;SDS011;6877;51.436;6.774;2023-12-04T13:39:10;12.75;;;6.35;;
13611;SDS011;6877;51.436;6.774;2023-12-04T13:41:45;10.95;;;7.35;;
13611;SDS011;6877;51.436;6.774;2023-12-04T13:44:30;13.65;;;7.65;;
13611;SDS011;6877;51.436;6.774;2023-12-04T13:46:59;13.65;;;7.22;;
13611;SDS011;6877;51.436;6.774;2023-12-04T13:49:26;12.98;;;7.10;;
13611;SDS011;6877;51.436;6.774;2023-12-04T13:51:57;11.25;;;6.22;;
13611;SDS011;6877;51.436;6.774;2023-12-04T13:54:24;12.93;;;6.75;;
13611;SDS011;6877;51.436;6.774;2023-12-04T13:57:15;13.48;;;6.30;;
13611;SDS011;6877;51.436;6.774;2023-12-04T13:59:55;12.43;;;6.03;;
13611;SDS011;6877;51.436;6.774;2023-12-04T14:02:24;9.60;;;5.35;;
13611;SDS011;6877;51.436;6.774;2023-12-04T14:04:51;10.25;;;5.85;;
13611;SDS011;6877;51.436;6.774;2023-12-04T14:07:23;11.68;;;6.25;;
13611;SDS011;6877;51.436;6.774;2023-12-04T14:09:50;13.80;;;6.80;;
13611;SDS011;6877;51.436;6.774;2023-12-04T14:12:17;12.05;;;5.80;;
13611;SDS011;6877;51.436;6.774;2023-12-04T14:14:44;10.27;;;5.53;;
13611;SDS011;6877;51.436;6.774;2023-12-04T14:17:10;12.40;;;6.63;;
13611;SDS011;6877;51.436;6.774;2023-12-04T14:19:43;10.52;;;5.85;;
13611;SDS011;6877;51.436;6.774;2023-12-04T14:22:09;11.43;;;6.30;;
13611;SDS011;6877;51.436;6.774;2023-12-04T14:24:36;8.00;;;5.95;;
13611;SDS011;6877;51.436;6.774;2023-12-04T14:27:04;8.52;;;5.57;;
13611;SDS011;6877;51.436;6.774;2023-12-04T14:29:32;13.07;;;6.30;;
13611;SDS011;6877;51.436;6.774;2023-12-04T14:31:58;8.85;;;5.53;;
13611;SDS011;6877;51.436;6.774;2023-12-04T14:34:25;10.73;;;5.72;;
13611;SDS011;6877;51.436;6.774;2023-12-04T14:36:59;11.50;;;5.80;;
13611;SDS011;6877;51.436;6.774;2023-12-04T14:39:26;12.02;;;5.95;;
13611;SDS011;6877;51.436;6.774;2023-12-04T14:41:53;10.77;;;6.45;;
13611;SDS011;6877;51.436;6.774;2023-12-04T14:44:19;9.95;;;5.72;;
13611;SDS011;6877;51.436;6.774;2023-12-04T14:46:46;12.20;;;6.20;;
13611;SDS011;6877;51.436;6.774;2023-12-04T14:49:13;12.93;;;5.78;;
13611;SDS011;6877;51.436;6.774;2023-12-04T14:51:44;9.65;;;5.10;;
13611;SDS011;6877;51.436;6.774;2023-12-04T14:54:19;8.18;;;5.13;;
13611;SDS011;6877;51.436;6.774;2023-12-04T14:57:03;8.65;;;5.05;;
13611;SDS011;6877;51.436;6.774;2023-12-04T14:59:45;7.57;;;5.72;;
13611;SDS011;6877;51.436;6.774;2023-12-04T15:02:36;9.07;;;5.57;;
13611;SDS011;6877;51.436;6.774;2023-12-04T15:05:12;8.13;;;4.70;;